Time;durP1;ratioP1;P1;durP2;ratioP2;P2;SDS_P1;SDS_P2;PMS_P1;PMS_P2;Temp;Humidity;BMP_temperature;BMP_pressure;BME280_temperature;BME280_humidity;BME280_pressure;Samples;Min_cycle;Max_cycle;Signal;HPM_P1;HPM_P2
2022/07/10 00:00:31;;;;;;;3.97;1.80;;;;;;;30.27;41.69;99776.22;5080208;28;20430;-86
2022/07/10 00:02:57;;;;;;;3.05;1.80;;;;;;;30.26;41.65;99763.75;5082447;28;20039;-87
2022/07/10 00:05:24;;;;;;;3.22;1.80;;;;;;;30.25;41.90;99770.13;5082864;28;20118;-88
2022/07/10 00:07:50;;;;;;;4.05;1.88;;;;;;;30.24;41.59;99763.06;5083820;28;20027;-88
2022/07/10 00:10:20;;;;;;;4.28;2.17;;;;;;;30.23;41.84;99761.38;5082255;28;20032;-84
2022/07/10 00:12:46;;;;;;;2.80;1.75;;;;;;;30.22;41.65;99767.72;5096309;28;20023;-86
2022/07/10 00:15:12;;;;;;;3.17;2.10;;;;;;;30.22;41.45;99762.34;5078448;28;20026;-85
2022/07/10 00:17:39;;;;;;;4.05;1.75;;;;;;;30.20;41.64;99767.03;5078436;28;20082;-85
2022/07/10 00:20:06;;;;;;;2.83;1.80;;;;;;;30.19;41.79;99753.72;5081225;28;20020;-84
2022/07/10 00:22:34;;;;;;;3.70;1.67;;;;;;;30.18;41.51;99763.66;5078787;28;20024;-86
2022/07/10 00:25:02;;;;;;;3.38;1.80;;;;;;;30.17;41.65;99758.41;5078167;28;20094;-86
2022/07/10 00:27:27;;;;;;;2.58;1.52;;;;;;;30.16;41.50;99754.03;5077952;28;20028;-84
2022/07/10 00:29:53;;;;;;;4.78;2.03;;;;;;;30.13;41.67;99750.63;5078202;28;20024;-84
2022/07/10 00:32:18;;;;;;;4.13;2.13;;;;;;;30.14;41.76;99746.09;5077924;28;20016;-86
2022/07/10 00:34:44;;;;;;;4.38;2.20;;;;;;;30.12;41.64;99748.09;5077788;28;20024;-85
2022/07/10 00:37:10;;;;;;;5.38;1.95;;;;;;;30.12;41.56;99748.09;5077907;28;20024;-84
2022/07/10 00:39:36;;;;;;;3.92;2.30;;;;;;;30.11;41.74;99746.41;5112602;28;20112;-84
2022/07/10 00:42:07;;;;;;;2.92;1.77;;;;;;;30.09;41.71;99743.00;5081410;28;20039;-85
2022/07/10 00:44:33;;;;;;;3.15;1.95;;;;;;;30.08;41.80;99739.44;5082442;28;20049;-85
2022/07/10 00:46:59;;;;;;;2.83;1.80;;;;;;;30.07;41.52;99737.72;5079000;28;20023;-87
2022/07/10 00:49:24;;;;;;;3.03;1.80;;;;;;;30.07;41.72;99734.19;5095797;28;20038;-86
2022/07/10 00:51:50;;;;;;;3.25;2.08;;;;;;;30.05;41.56;99742.41;5096140;28;20032;-86
2022/07/10 00:54:16;;;;;;;3.75;2.08;;;;;;;30.04;41.74;99739.88;5077899;28;20361;-85
2022/07/10 00:56:42;;;;;;;3.92;1.80;;;;;;;30.02;41.76;99738.16;5078224;28;20038;-85
2022/07/10 00:59:09;;;;;;;3.60;2.13;;;;;;;30.02;41.50;99740.88;5078325;28;20027;-86
2022/07/10 01:01:36;;;;;;;3.22;1.92;;;;;;;30.01;41.27;99746.38;5111766;28;20031;-87
2022/07/10 01:04:02;;;;;;;4.60;2.10;;;;;;;29.98;41.37;99734.06;5112803;28;20024;-86
2022/07/10 01:06:27;;;;;;;3.28;1.90;;;;;;;29.98;41.70;99735.94;5079418;28;20028;-84
2022/07/10 01:08:53;;;;;;;3.03;2.08;;;;;;;29.97;41.46;99740.44;5113541;28;20081;-84
2022/07/10 01:11:20;;;;;;;3.08;2.10;;;;;;;29.96;41.55;99738.75;5095257;28;20039;-86
2022/07/10 01:13:45;;;;;;;3.45;2.10;;;;;;;29.96;41.50;99743.28;5077521;28;20480;-84
2022/07/10 01:16:12;;;;;;;3.80;2.00;;;;;;;29.95;41.45;99734.38;5095017;28;20027;-86
2022/07/10 01:18:38;;;;;;;4.63;2.33;;;;;;;29.92;41.32;99726.59;5077424;28;20048;-85
2022/07/10 01:21:04;;;;;;;3.28;2.08;;;;;;;29.92;41.49;99737.34;5077436;28;20081;-85
2022/07/10 01:23:29;;;;;;;4.20;2.33;;;;;;;29.90;41.56;99728.59;5111855;28;20046;-84
2022/07/10 01:25:55;;;;;;;3.90;2.42;;;;;;;29.89;41.54;99732.28;5077754;28;20077;-84
2022/07/10 01:28:21;;;;;;;3.70;2.50;;;;;;;29.88;41.55;99735.97;5077436;28;20088;-85
2022/07/10 01:30:47;;;;;;;3.42;1.75;;;;;;;29.87;41.55;99737.78;5077097;28;20457;-84
2022/07/10 01:33:13;;;;;;;3.28;1.92;;;;;;;29.85;41.59;99728.19;5077293;28;20233;-85
2022/07/10 01:35:39;;;;;;;3.53;2.35;;;;;;;29.86;41.36;99737.94;5078832;28;20020;-87
2022/07/10 01:38:06;;;;;;;3.22;2.08;;;;;;;29.84;41.31;99729.16;5113579;28;20024;-87
2022/07/10 01:40:32;;;;;;;4.50;2.45;;;;;;;29.83;41.35;99727.47;5097141;28;20481;-85
2022/07/10 01:42:58;;;;;;;3.88;2.17;;;;;;;29.82;41.24;99733.84;5095806;28;20024;-85
2022/07/10 01:45:24;;;;;;;3.42;2.17;;;;;;;29.80;41.55;99727.75;5078016;28;20016;-85
2022/07/10 01:47:50;;;;;;;3.42;2.55;;;;;;;29.80;41.43;99728.63;5114299;28;20016;-85
2022/07/10 01:50:15;;;;;;;4.20;2.40;;;;;;;29.80;41.29;99722.38;5081237;28;20468;-83
2022/07/10 01:52:41;;;;;;;2.45;1.80;;;;;;;29.79;41.12;99720.69;5081447;28;20024;-84
2022/07/10 01:55:07;;;;;;;3.72;2.20;;;;;;;29.78;41.42;99724.38;5118032;28;20048;-85
2022/07/10 01:57:32;;;;;;;4.88;2.30;;;;;;;29.79;41.56;99726.06;5083296;28;20370;-84
2022/07/10 01:59:58;;;;;;;3.03;2.03;;;;;;;29.77;41.50;99731.59;5081113;28;20115;-84
2022/07/10 02:02:24;;;;;;;4.25;2.63;;;;;;;29.77;41.45;99722.69;5081530;28;20035;-86
2022/07/10 02:04:49;;;;;;;3.83;2.35;;;;;;;29.76;41.43;99718.31;5081301;28;20066;-86
2022/07/10 02:07:18;;;;;;;3.65;2.03;;;;;;;29.74;41.69;99713.91;5082392;28;20027;-85
2022/07/10 02:09:45;;;;;;;3.42;2.00;;;;;;;29.74;41.21;99719.28;5099562;28;20019;-84
2022/07/10 02:12:12;;;;;;;3.53;2.30;;;;;;;29.74;41.43;99721.13;5081684;28;20043;-84
2022/07/10 02:14:39;;;;;;;3.33;2.42;;;;;;;29.73;41.41;99722.13;5099992;28;20330;-85
2022/07/10 02:17:05;;;;;;;3.83;2.40;;;;;;;29.73;41.66;99724.81;5082427;28;20362;-85
2022/07/10 02:19:32;;;;;;;4.03;2.38;;;;;;;29.71;41.55;99719.59;5085164;28;20069;-88
2022/07/10 02:21:57;;;;;;;3.50;2.25;;;;;;;29.71;41.44;99708.81;5085537;28;20030;-86
2022/07/10 02:24:23;;;;;;;4.10;2.30;;;;;;;29.71;41.31;99711.50;5120659;28;20024;-87
2022/07/10 02:26:49;;;;;;;4.55;2.40;;;;;;;29.69;41.30;99700.03;5101672;28;20027;-85
2022/07/10 02:29:15;;;;;;;3.90;2.38;;;;;;;29.70;41.36;99707.13;5080577;28;20089;-85
2022/07/10 02:31:41;;;;;;;3.97;2.20;;;;;;;29.67;41.16;99701.19;5082509;28;20032;-85
2022/07/10 02:34:07;;;;;;;3.42;2.10;;;;;;;29.66;41.52;99705.72;5102481;28;20097;-84
2022/07/10 02:36:33;;;;;;;3.60;2.20;;;;;;;29.65;41.65;99709.41;5083712;28;20594;-85
2022/07/10 02:38:59;;;;;;;3.28;1.90;;;;;;;29.66;41.62;99700.34;5080605;28;20116;-85
2022/07/10 02:41:25;;;;;;;3.40;2.28;;;;;;;29.65;41.35;99700.47;5098041;28;20026;-85
2022/07/10 02:43:51;;;;;;;3.50;2.25;;;;;;;29.65;41.41;99703.16;5080331;28;20027;-85
2022/07/10 02:46:16;;;;;;;3.17;2.40;;;;;;;29.63;41.77;99700.63;5082782;28;20453;-86
2022/07/10 02:48:42;;;;;;;3.47;2.05;;;;;;;29.60;41.42;99696.38;5080126;28;20035;-86
2022/07/10 02:51:07;;;;;;;3.95;2.13;;;;;;;29.63;41.58;99694.41;5080172;28;20601;-86
2022/07/10 02:53:33;;;;;;;3.42;2.03;;;;;;;29.60;41.65;99695.53;5098541;28;20024;-86
2022/07/10 02:55:59;;;;;;;3.55;2.03;;;;;;;29.60;41.66;99690.16;5108826;28;20024;-88
2022/07/10 02:58:25;;;;;;;3.33;2.20;;;;;;;29.60;41.67;99690.16;5105327;28;20020;-85
2022/07/10 03:00:51;;;;;;;4.30;2.38;;;;;;;29.59;41.31;99688.47;5079980;28;20058;-85
2022/07/10 03:03:19;;;;;;;3.50;2.55;;;;;;;29.56;41.26;99689.63;5079838;28;20031;-84
2022/07/10 03:05:45;;;;;;;3.58;2.03;;;;;;;29.54;41.38;99680.00;5079944;28;20365;-83
2022/07/10 03:08:11;;;;;;;3.25;2.10;;;;;;;29.51;41.70;99669.53;5080043;28;20024;-84
2022/07/10 03:10:38;;;;;;;3.60;1.95;;;;;;;29.48;41.25;99671.53;5080318;28;20023;-84
2022/07/10 03:13:04;;;;;;;3.58;2.00;;;;;;;29.48;41.42;99665.28;5097414;28;20020;-83
2022/07/10 03:15:29;;;;;;;3.55;2.38;;;;;;;29.46;41.44;99670.78;5079494;28;20107;-85
2022/07/10 03:17:55;;;;;;;3.35;1.65;;;;;;;29.43;41.52;99665.69;5113610;28;20395;-84
2022/07/10 03:20:21;;;;;;;3.47;2.17;;;;;;;29.42;41.34;99650.56;5079851;28;20020;-86
2022/07/10 03:22:47;;;;;;;4.32;2.30;;;;;;;29.40;41.59;99660.63;5079656;28;20119;-85
2022/07/10 03:25:13;;;;;;;3.70;2.30;;;;;;;29.40;41.67;99652.56;5098776;28;20023;-84
2022/07/10 03:27:39;;;;;;;3.33;1.90;;;;;;;29.38;41.39;99651.00;5082573;28;20457;-84
2022/07/10 03:30:05;;;;;;;4.80;2.10;;;;;;;29.37;41.42;99652.84;5083845;28;20120;-86
2022/07/10 03:32:31;;;;;;;4.53;2.17;;;;;;;29.36;41.56;99661.91;5114734;28;20480;-84
2022/07/10 03:34:57;;;;;;;4.15;2.17;;;;;;;29.35;41.77;99657.53;5083238;28;20028;-86
2022/07/10 03:37:23;;;;;;;3.70;2.10;;;;;;;29.31;41.54;99648.91;5080320;28;20032;-85
2022/07/10 03:39:48;;;;;;;3.30;2.03;;;;;;;29.31;41.72;99645.34;5079019;28;20071;-86
2022/07/10 03:42:14;;;;;;;3.40;2.10;;;;;;;29.30;41.44;99641.81;5079107;28;20126;-84
2022/07/10 03:44:40;;;;;;;3.28;1.95;;;;;;;29.30;41.80;99649.03;5079042;28;20039;-84
2022/07/10 03:47:05;;;;;;;3.53;2.20;;;;;;;29.29;41.43;99639.28;5079080;28;20468;-84
2022/07/10 03:49:31;;;;;;;3.05;1.92;;;;;;;29.28;41.44;99640.25;5078984;28;20024;-84
2022/07/10 03:52:01;;;;;;;3.45;1.92;;;;;;;29.26;41.56;99644.94;5079371;28;20036;-85
2022/07/10 03:54:27;;;;;;;5.18;2.20;;;;;;;29.26;41.92;99639.56;5097339;28;20358;-84
2022/07/10 03:59:36;;;;;;;4.18;2.20;;;;;;;29.26;41.93;99639.56;5097066;28;20053;-84
2022/07/10 04:02:02;;;;;;;3.55;2.00;;;;;;;29.25;41.79;99638.72;5112607;28;20489;-84
2022/07/10 04:04:28;;;;;;;3.00;2.00;;;;;;;29.22;41.73;99628.25;5078792;28;20039;-85
2022/07/10 04:06:54;;;;;;;3.35;2.00;;;;;;;29.22;41.89;99633.63;5079061;28;20110;-84
2022/07/10 04:09:22;;;;;;;2.45;1.70;;;;;;;29.23;41.71;99650.59;5078555;28;20056;-85
2022/07/10 04:11:48;;;;;;;3.17;2.05;;;;;;;29.21;42.06;99638.13;5096959;28;20035;-85
2022/07/10 04:14:14;;;;;;;3.35;2.15;;;;;;;29.21;41.85;99643.50;5079106;28;20041;-84
2022/07/10 04:16:40;;;;;;;2.83;2.03;;;;;;;29.24;41.90;99649.63;5078773;28;20484;-84
2022/07/10 04:19:05;;;;;;;4.50;2.00;;;;;;;29.21;41.87;99651.56;5112980;28;20032;-84
2022/07/10 04:21:31;;;;;;;3.63;2.00;;;;;;;29.23;41.99;99656.81;5078750;28;20028;-83
2022/07/10 04:24:04;;;;;;;4.13;2.05;;;;;;;29.21;42.08;99654.25;5078946;28;20103;-85
2022/07/10 04:26:30;;;;;;;3.17;1.77;;;;;;;29.20;41.85;99657.94;5079906;28;20047;-84
2022/07/10 04:28:55;;;;;;;3.42;1.75;;;;;;;29.20;42.19;99657.94;5114212;28;20458;-86
2022/07/10 04:31:46;;;;;;;3.35;1.98;;;;;;;29.20;41.97;99663.31;5081598;28;20028;-85
2022/07/10 04:34:12;;;;;;;3.53;1.88;;;;;;;29.17;42.15;99669.00;5082441;28;20058;-88
2022/07/10 04:36:37;;;;;;;4.35;1.90;;;;;;;29.18;42.15;99670.69;5117714;28;20032;-85
2022/07/10 04:39:03;;;;;;;3.55;1.85;;;;;;;29.18;41.89;99670.69;5080839;28;20032;-87
2022/07/10 04:41:29;;;;;;;3.70;1.95;;;;;;;29.17;42.14;99662.75;5079638;28;20042;-85
2022/07/10 04:43:54;;;;;;;2.95;1.80;;;;;;;29.16;42.00;99670.00;5096349;28;20134;-87
2022/07/10 04:46:20;;;;;;;3.78;2.03;;;;;;;29.17;42.02;99671.69;5078561;28;20362;-85
2022/07/10 04:48:46;;;;;;;3.05;1.83;;;;;;;29.14;41.90;99669.25;5112304;28;20028;-84
2022/07/10 04:51:11;;;;;;;4.38;2.33;;;;;;;29.14;41.90;99669.25;5111850;28;20035;-84
2022/07/10 04:53:38;;;;;;;3.17;2.03;;;;;;;29.15;41.85;99670.97;5077647;28;20089;-85
2022/07/10 04:56:04;;;;;;;5.20;2.25;;;;;;;29.15;41.82;99673.66;5095743;28;20028;-84
2022/07/10 04:58:30;;;;;;;3.60;1.90;;;;;;;29.14;41.83;99669.25;5096002;28;20397;-84
2022/07/10 05:00:59;;;;;;;3.42;2.08;;;;;;;29.14;42.13;99673.81;5095593;28;20103;-84
2022/07/10 05:03:29;;;;;;;3.58;2.20;;;;;;;29.12;42.10;99676.63;5077782;28;20461;-86
2022/07/10 05:05:55;;;;;;;3.80;1.95;;;;;;;29.13;41.82;99677.47;5077675;28;20032;-84
2022/07/10 05:08:21;;;;;;;3.55;2.10;;;;;;;29.10;41.75;99680.44;5077783;28;20031;-85
2022/07/10 05:10:47;;;;;;;2.90;1.90;;;;;;;29.11;42.05;99691.06;5077632;28;20038;-84
2022/07/10 05:13:12;;;;;;;5.38;2.30;;;;;;;29.10;41.99;99678.59;5097730;28;20036;-84
2022/07/10 05:15:39;;;;;;;3.35;2.00;;;;;;;29.08;41.90;99694.00;5111109;28;20028;-84
2022/07/10 05:18:04;;;;;;;4.72;2.15;;;;;;;29.07;41.80;99690.50;5077331;28;20027;-84
2022/07/10 05:20:30;;;;;;;3.83;2.10;;;;;;;29.05;41.89;99697.00;5077107;28;20035;-84
2022/07/10 05:22:56;;;;;;;3.33;2.10;;;;;;;29.06;41.89;99693.31;5076851;28;20092;-85
2022/07/10 05:25:26;;;;;;;2.92;2.00;;;;;;;29.06;42.00;99694.16;5077298;28;20042;-84
2022/07/10 05:27:52;;;;;;;3.55;2.10;;;;;;;29.06;41.86;99685.25;5096204;28;20019;-84
2022/07/10 05:30:19;;;;;;;4.15;2.28;;;;;;;29.06;42.01;99687.94;5078209;28;20477;-84
2022/07/10 05:32:45;;;;;;;4.78;2.30;;;;;;;29.06;41.85;99685.25;5077238;28;20177;-85
2022/07/10 05:35:13;;;;;;;4.35;2.22;;;;;;;29.04;42.08;99679.16;5077084;28;20028;-84
2022/07/10 05:37:39;;;;;;;3.67;2.10;;;;;;;29.03;41.88;99682.84;5094798;28;20028;-85
2022/07/10 05:40:10;;;;;;;3.30;1.92;;;;;;;29.04;41.87;99684.53;5109643;28;20048;-87
2022/07/10 05:42:44;;;;;;;3.50;2.40;;;;;;;29.04;42.04;99689.91;5076840;28;20526;-85
2022/07/10 05:45:11;;;;;;;3.95;2.25;;;;;;;29.04;41.87;99695.28;5111407;28;20027;-85
2022/07/10 05:47:37;;;;;;;4.97;2.15;;;;;;;29.04;41.79;99689.91;5079593;28;20039;-86
2022/07/10 05:50:04;;;;;;;3.03;2.05;;;;;;;29.02;41.78;99686.53;5080925;28;20096;-85
2022/07/10 05:52:34;;;;;;;4.20;2.38;;;;;;;29.02;41.67;99686.53;5078774;28;20111;-86
2022/07/10 05:55:07;;;;;;;4.75;2.38;;;;;;;29.01;41.92;99687.50;5095730;28;20117;-86
2022/07/10 05:57:42;;;;;;;4.13;2.40;;;;;;;29.02;41.58;99691.91;5077347;28;20055;-87
2022/07/10 06:00:09;;;;;;;4.53;2.37;;;;;;;29.01;41.79;99690.22;5079778;28;20098;-86
2022/07/10 06:02:35;;;;;;;4.43;2.67;;;;;;;29.00;42.04;99683.16;5076870;28;20409;-87
2022/07/10 06:05:02;;;;;;;3.53;2.25;;;;;;;28.98;41.78;99679.72;5077021;28;20503;-85
2022/07/10 06:07:27;;;;;;;4.07;2.20;;;;;;;29.00;41.54;99680.44;5095197;28;20028;-85
2022/07/10 06:09:56;;;;;;;5.00;2.17;;;;;;;28.98;41.75;99680.59;5078057;28;20020;-86
2022/07/10 06:12:22;;;;;;;4.22;2.25;;;;;;;28.99;41.82;99678.75;5077233;28;20119;-85
2022/07/10 06:14:48;;;;;;;3.38;2.17;;;;;;;28.99;41.88;99687.66;5110837;28;20421;-84
2022/07/10 06:17:13;;;;;;;4.07;2.45;;;;;;;28.99;41.40;99682.28;5076986;28;20028;-86
2022/07/10 06:19:41;;;;;;;4.57;2.80;;;;;;;28.98;41.65;99683.28;5076893;28;20059;-84
2022/07/10 06:22:32;;;;;;;3.58;2.38;;;;;;;28.98;41.51;99677.03;5076899;28;20032;-86
2022/07/10 06:25:53;;;;;;;4.43;2.50;;;;;;;28.98;41.30;99685.09;5077422;28;20028;-85
2022/07/10 06:28:19;;;;;;;5.03;2.70;;;;;;;28.99;41.42;99689.50;5056182;28;20111;-86
2022/07/10 06:30:48;;;;;;;3.45;2.58;;;;;;;28.98;41.81;99690.47;5057258;28;20052;-84
2022/07/10 06:33:14;;;;;;;5.70;2.50;;;;;;;28.96;41.19;99685.25;5068660;28;20035;-85
2022/07/10 06:35:39;;;;;;;4.03;2.75;;;;;;;28.97;41.59;99688.78;5098609;28;20035;-85
2022/07/10 06:38:05;;;;;;;4.85;2.70;;;;;;;28.97;41.13;99688.78;5080486;28;20491;-85
2022/07/10 06:40:36;;;;;;;4.55;2.38;;;;;;;28.94;41.47;99685.41;5080290;28;20048;-86
2022/07/10 06:43:02;;;;;;;4.93;2.80;;;;;;;28.95;41.18;99686.22;5114578;28;20095;-87
2022/07/10 06:45:28;;;;;;;3.97;2.67;;;;;;;28.96;41.36;99687.09;5101438;28;20172;-88
2022/07/10 06:47:58;;;;;;;3.75;2.75;;;;;;;28.96;41.52;99687.09;5084738;28;20523;-89
2022/07/10 06:50:25;;;;;;;4.10;2.70;;;;;;;28.96;41.22;99687.09;5084517;28;20028;-88
2022/07/10 06:52:51;;;;;;;5.13;2.78;;;;;;;28.97;41.06;99688.78;5083062;28;20081;-87
2022/07/10 06:55:21;;;;;;;3.67;2.38;;;;;;;28.96;41.04;99687.94;5084303;28;20028;-86
2022/07/10 06:57:47;;;;;;;4.30;2.38;;;;;;;28.96;41.06;99687.09;5116072;28;20457;-87
2022/07/10 07:00:13;;;;;;;4.97;2.70;;;;;;;28.96;41.00;99681.72;5080704;28;20024;-86
2022/07/10 07:02:39;;;;;;;3.85;2.60;;;;;;;28.96;41.07;99681.72;5081128;28;20114;-85
2022/07/10 07:05:05;;;;;;;3.88;2.50;;;;;;;28.96;41.19;99679.03;5079998;28;20035;-86
2022/07/10 07:07:31;;;;;;;3.63;2.53;;;;;;;28.96;41.12;99684.41;5097977;28;20028;-87
2022/07/10 07:09:57;;;;;;;3.42;2.45;;;;;;;28.96;41.01;99681.72;5114070;28;20038;-83
2022/07/10 07:12:22;;;;;;;4.35;2.83;;;;;;;28.97;40.89;99678.03;5097856;28;20412;-84
2022/07/10 07:14:48;;;;;;;4.50;2.53;;;;;;;28.98;41.08;99687.78;5079709;28;20114;-85
2022/07/10 07:17:21;;;;;;;3.65;2.55;;;;;;;28.97;40.89;99689.63;5079605;28;20085;-84
2022/07/10 07:25:14;;;;;;;4.53;3.00;;;;;;;29.02;41.06;99686.53;5097613;28;20506;-84
2022/07/10 07:27:40;;;;;;;4.90;3.10;;;;;;;29.03;40.80;99688.22;5079408;28;20024;-85
2022/07/10 07:30:08;;;;;;;4.30;2.92;;;;;;;29.02;40.91;99686.53;5079606;28;20028;-85
2022/07/10 07:32:34;;;;;;;3.58;2.50;;;;;;;29.03;40.71;99685.53;5098135;28;20039;-84
2022/07/10 07:35:00;;;;;;;5.45;2.90;;;;;;;29.04;40.52;99681.84;5081299;28;20035;-85
2022/07/10 07:37:39;;;;;;;3.88;2.53;;;;;;;29.06;40.65;99682.56;5080310;28;20035;-83
2022/07/10 07:40:06;;;;;;;4.88;2.70;;;;;;;29.06;40.59;99682.56;5079034;28;20147;-82
2022/07/10 07:42:32;;;;;;;5.55;3.15;;;;;;;29.07;40.82;99684.25;5079040;28;20468;-86
2022/07/10 07:44:57;;;;;;;4.35;3.25;;;;;;;29.08;40.16;99680.59;5078344;28;20032;-83
2022/07/10 07:47:23;;;;;;;4.65;2.60;;;;;;;29.08;40.70;99669.84;5080235;28;20027;-84
2022/07/10 07:49:49;;;;;;;4.55;3.10;;;;;;;29.10;40.40;99670.53;5080098;28;20128;-84
2022/07/10 07:52:14;;;;;;;4.45;2.85;;;;;;;29.10;40.81;99661.66;5079063;28;20085;-85
2022/07/10 07:54:40;;;;;;;5.82;2.80;;;;;;;29.11;40.53;99663.34;5079072;28;20078;-84
2022/07/10 07:57:06;;;;;;;4.85;3.25;;;;;;;29.12;40.36;99655.13;5078897;28;20040;-85
2022/07/10 07:59:31;;;;;;;5.65;3.08;;;;;;;29.13;40.57;99650.59;5114116;28;20051;-84
2022/07/10 08:01:57;;;;;;;4.45;3.05;;;;;;;29.15;40.17;99654.00;5080095;28;20396;-85
2022/07/10 08:04:23;;;;;;;4.72;2.90;;;;;;;29.16;40.32;99661.06;5080077;28;20039;-85
2022/07/10 08:06:51;;;;;;;5.55;3.05;;;;;;;29.16;40.32;99661.94;5078759;28;20027;-84
2022/07/10 08:09:21;;;;;;;4.75;2.85;;;;;;;29.17;40.40;99663.63;5079043;28;20059;-84
2022/07/10 08:11:47;;;;;;;4.43;3.03;;;;;;;29.19;40.27;99667.00;5078494;28;20062;-85
2022/07/10 08:14:14;;;;;;;4.32;2.90;;;;;;;29.21;40.50;99670.38;5078330;28;20449;-83
2022/07/10 08:16:40;;;;;;;5.63;3.05;;;;;;;29.23;40.27;99655.97;5096658;28;20036;-84
2022/07/10 08:19:06;;;;;;;5.35;3.20;;;;;;;29.25;40.35;99656.69;5079490;28;20446;-85
2022/07/10 08:21:33;;;;;;;5.72;3.10;;;;;;;29.26;40.02;99658.38;5079294;28;20020;-84
2022/07/10 08:24:00;;;;;;;5.25;3.22;;;;;;;29.28;40.32;99659.06;5096878;28;20020;-85
2022/07/10 08:26:25;;;;;;;5.88;3.30;;;;;;;29.28;40.34;99648.31;5081152;28;20016;-86
2022/07/10 08:28:51;;;;;;;5.25;3.30;;;;;;;29.30;40.06;99657.09;5096060;28;20024;-85
2022/07/10 08:31:17;;;;;;;4.90;3.00;;;;;;;29.32;40.18;99649.72;5078273;28;20159;-84
2022/07/10 08:33:42;;;;;;;5.50;3.17;;;;;;;29.32;40.14;99655.09;5078127;28;20023;-84
2022/07/10 08:36:08;;;;;;;5.10;3.15;;;;;;;29.34;40.45;99647.72;5079133;28;20059;-84
2022/07/10 08:38:33;;;;;;;4.85;2.95;;;;;;;29.36;40.00;99653.84;5077855;28;20050;-84
2022/07/10 08:41:02;;;;;;;6.85;3.03;;;;;;;29.38;40.33;99657.22;5077457;28;20048;-83
2022/07/10 08:43:28;;;;;;;3.75;2.70;;;;;;;29.39;39.96;99653.53;5078119;28;20035;-84
2022/07/10 08:45:54;;;;;;;4.22;2.50;;;;;;;29.40;40.30;99649.88;5077963;28;20085;-84
2022/07/10 08:48:24;;;;;;;5.18;2.90;;;;;;;29.41;39.88;99640.81;5078196;28;20028;-85
2022/07/10 08:50:54;;;;;;;5.18;2.92;;;;;;;29.42;39.93;99639.81;5079402;28;20557;-86
2022/07/10 08:53:32;;;;;;;6.25;3.08;;;;;;;29.43;40.53;99644.19;5112584;28;20101;-85
2022/07/10 08:55:59;;;;;;;6.85;3.05;;;;;;;29.44;40.83;99637.81;5079037;28;20423;-86
2022/07/10 08:58:27;;;;;;;5.75;2.85;;;;;;;29.45;40.48;99638.69;5078372;28;20028;-84
2022/07/10 09:00:53;;;;;;;4.88;2.92;;;;;;;29.47;40.19;99642.91;5078108;28;20047;-87
2022/07/10 09:03:19;;;;;;;5.13;2.90;;;;;;;29.48;40.33;99638.41;5079129;28;20120;-84
2022/07/10 09:05:45;;;;;;;4.15;2.42;;;;;;;29.52;40.20;99636.25;5082991;28;20350;-85
2022/07/10 09:08:27;;;;;;;4.10;2.83;;;;;;;29.53;40.01;99632.59;5085744;28;20028;-87
2022/07/10 09:11:14;;;;;;;3.78;2.50;;;;;;;29.55;40.03;99638.69;5086753;28;20055;-87
2022/07/10 09:13:53;;;;;;;3.67;2.58;;;;;;;29.57;40.19;99631.31;5079970;28;20058;-84
2022/07/10 09:16:27;;;;;;;4.72;2.65;;;;;;;29.59;40.28;99621.28;5077045;28;20036;-84
2022/07/10 09:18:54;;;;;;;4.05;2.88;;;;;;;29.61;40.38;99622.81;5095028;28;20027;-84
2022/07/10 09:21:20;;;;;;;3.30;2.42;;;;;;;29.63;40.12;99633.41;5077283;28;20034;-85
2022/07/10 09:23:46;;;;;;;4.38;2.50;;;;;;;29.64;39.95;99616.31;5077419;28;20035;-85
2022/07/10 09:26:12;;;;;;;4.75;2.90;;;;;;;29.63;40.26;99625.34;5095389;28;20019;-87
2022/07/10 09:28:38;;;;;;;4.15;2.72;;;;;;;29.68;40.29;99625.75;5077719;28;20031;-85
2022/07/10 09:31:04;;;;;;;5.15;2.75;;;;;;;29.69;40.27;99624.75;5077866;28;20369;-85
2022/07/10 09:33:33;;;;;;;4.20;2.70;;;;;;;29.71;40.00;99620.09;5079525;28;20104;-83
2022/07/10 09:36:12;;;;;;;5.05;2.60;;;;;;;29.74;40.21;99621.63;5078066;28;20043;-85
2022/07/10 09:38:43;;;;;;;3.50;2.60;;;;;;;29.77;39.96;99612.44;5080006;28;20119;-85
2022/07/10 09:41:26;;;;;;;4.38;2.63;;;;;;;29.79;40.39;99623.88;5077605;28;20044;-83
2022/07/10 09:43:53;;;;;;;3.72;2.40;;;;;;;29.80;39.90;99620.19;5079322;28;20035;-87
2022/07/10 09:46:21;;;;;;;4.38;2.80;;;;;;;29.81;40.14;99622.72;5077424;28;20023;-85
2022/07/10 09:48:47;;;;;;;4.15;2.70;;;;;;;29.84;39.96;99621.59;5080091;28;20126;-86
2022/07/10 09:51:13;;;;;;;4.60;2.88;;;;;;;29.88;39.88;99628.38;5080872;28;20020;-86
2022/07/10 09:53:44;;;;;;;3.65;2.30;;;;;;;29.88;39.88;99623.00;5085042;28;20039;-86
2022/07/10 09:56:11;;;;;;;4.38;2.42;;;;;;;29.91;40.11;99617.31;5088524;28;20032;-86
2022/07/10 09:58:38;;;;;;;4.25;2.70;;;;;;;29.93;39.91;99614.47;5103969;28;20027;-86
2022/07/10 10:01:08;;;;;;;3.72;2.25;;;;;;;29.95;40.22;99623.22;5088719;28;20024;-87
2022/07/10 10:03:45;;;;;;;3.78;2.53;;;;;;;29.97;40.36;99615.88;5090448;28;20031;-87
2022/07/10 10:06:13;;;;;;;3.63;2.45;;;;;;;30.01;40.22;99619.94;5093726;28;20026;-87
2022/07/10 10:09:03;;;;;;;4.10;2.28;;;;;;;30.02;39.98;99609.03;5093391;28;20119;-89
2022/07/10 10:11:31;;;;;;;3.50;2.20;;;;;;;30.06;40.08;99608.75;5093509;28;20408;-85
2022/07/10 10:13:58;;;;;;;3.97;2.45;;;;;;;30.08;40.06;99606.75;5091890;28;20034;-87
2022/07/10 10:16:29;;;;;;;3.80;2.40;;;;;;;30.11;40.27;99611.88;5116956;28;20027;-86
2022/07/10 10:21:40;;;;;;;4.10;2.60;;;;;;;30.17;40.34;99607.72;5100844;28;20089;-85
2022/07/10 10:24:09;;;;;;;2.90;2.20;;;;;;;30.18;40.20;99596.81;5101217;28;20020;-84
2022/07/10 10:26:35;;;;;;;5.85;2.30;;;;;;;30.19;40.13;99593.13;5102568;28;20087;-86
2022/07/10 10:29:04;;;;;;;5.03;2.58;;;;;;;30.19;40.13;99598.50;5100287;28;20081;-83
2022/07/10 10:31:32;;;;;;;4.80;2.60;;;;;;;30.21;39.56;99601.03;5081088;28;20043;-84
2022/07/10 10:34:00;;;;;;;4.22;2.45;;;;;;;30.22;39.30;99598.19;5114323;28;20028;-84
2022/07/10 10:36:47;;;;;;;4.40;2.42;;;;;;;30.22;38.26;99598.19;5080234;28;20020;-84
2022/07/10 10:39:18;;;;;;;5.82;2.40;;;;;;;30.25;39.05;99597.88;5098492;28;20044;-85
2022/07/10 10:41:54;;;;;;;4.47;2.10;;;;;;;30.27;39.30;99590.50;5082352;28;20031;-84
2022/07/10 10:44:20;;;;;;;;;;;;;;;30.32;39.49;99591.91;5080531;28;20020;-85
2022/07/10 10:46:57;;;;;;;4.60;2.23;;;;;;;30.32;39.30;99595.44;5080567;28;19908;-84
2022/07/10 10:49:24;;;;;;;4.47;2.25;;;;;;;30.34;38.66;99596.13;5082791;28;20024;-84
2022/07/10 10:52:09;;;;;;;3.85;2.33;;;;;;;30.32;37.79;99587.38;5086442;28;20347;-86
2022/07/10 10:55:29;;;;;;;3.58;2.42;;;;;;;30.36;38.28;99598.69;5116106;28;20031;-86
2022/07/10 10:57:48;;;;;;;3.97;2.20;;;;;;;30.38;38.19;99585.91;5095170;28;20063;-85
2022/07/10 11:00:29;;;;;;;4.03;2.30;;;;;;;30.39;38.15;99576.81;5080089;28;20058;-83
2022/07/10 11:03:15;;;;;;;3.05;2.25;;;;;;;30.41;38.30;99577.53;5079920;28;20028;-86
2022/07/10 11:05:42;;;;;;;3.10;2.10;;;;;;;30.43;38.31;99567.44;5097622;28;20031;-87
2022/07/10 11:08:08;;;;;;;3.58;2.38;;;;;;;30.45;38.50;99560.06;5079993;28;20457;-83
2022/07/10 11:10:39;;;;;;;3.17;2.00;;;;;;;30.49;38.56;99563.28;5080209;28;20028;-86
2022/07/10 11:13:18;;;;;;;4.68;2.42;;;;;;;30.51;38.49;99564.00;5098941;28;20019;-85
2022/07/10 11:15:52;;;;;;;3.90;2.50;;;;;;;30.52;38.38;99554.91;5098437;28;20023;-86
2022/07/10 11:18:25;;;;;;;3.85;2.20;;;;;;;30.54;38.50;99564.53;5098511;28;20043;-86
2022/07/10 11:20:53;;;;;;;3.75;2.22;;;;;;;30.57;38.47;99554.44;5080601;28;20096;-85
2022/07/10 11:23:56;;;;;;;3.35;2.00;;;;;;;30.58;38.76;99548.03;5082226;28;20087;-85
2022/07/10 11:26:43;;;;;;;3.85;2.30;;;;;;;30.62;39.05;99554.81;5086065;28;20027;-87
2022/07/10 11:29:09;;;;;;;3.33;1.88;;;;;;;30.63;39.02;99551.97;5084349;28;20526;-86
2022/07/10 11:31:40;;;;;;;2.95;2.17;;;;;;;30.66;39.04;99556.22;5079331;28;20024;-84
2022/07/10 11:34:06;;;;;;;3.42;2.13;;;;;;;30.69;39.07;99545.16;5079229;28;20055;-84
2022/07/10 11:36:32;;;;;;;4.40;2.50;;;;;;;30.70;38.84;99541.47;5099091;28;20055;-84
2022/07/10 11:39:04;;;;;;;2.92;1.95;;;;;;;30.71;39.23;99543.16;5097692;28;20024;-85
2022/07/10 11:41:30;;;;;;;3.08;1.90;;;;;;;30.74;38.98;99548.22;5079183;28;20024;-86
2022/07/10 11:43:58;;;;;;;3.42;2.20;;;;;;;30.74;38.87;99545.53;5081278;28;20078;-84
2022/07/10 11:46:25;;;;;;;3.25;1.90;;;;;;;30.77;38.87;99538.97;5079805;28;20127;-84
2022/07/10 11:49:37;;;;;;;3.05;1.98;;;;;;;30.78;38.87;99527.19;5084050;28;20465;-86